Easterwood Field
KCLL : now visible

Airfield :











YOU CAN JOIN US ON...

 
LOGIN :

Register | Disclaimer

   EN    FR    IT 

 









Legend :    VFR   Marginal VFR   IFR   Intensive IFR   Very Intensive IFR
Visi :
Ceiling :
>= 8 km
>= 3000ft
5 to 8 km
1000 to 3000 ft
1500m to 5 km
500 to 1000 ft
800 to 1500m
200 to 500 ft
< 800m
< 200 ft
Symbols :   Thunderstorms  Fog  Heavy snow  Heavy precipitations  Wind > 20 kt






- Airport Elevation : 320 ft
- IATA code : CLL


KCLL - Easterwood Field

CURRENT METAR :
  • 082053Z 18015G21KT 10SM CLR 24/13 A2992 RMK AO2 SLP130 T02390128 56040

EXPIRED METARs :
  • 081953Z 19013KT 10SM CLR 23/13 A2994 RMK AO2 SLP137 T02280128
  • 081853Z 18013KT 10SM FEW024 22/13 A2998 RMK AO2 SLP150 T02170133

TAF KCLL
Valid from the 08 at 18:00 until the 09 at 18:00 UTC


081740Z 0818/0918 17013KT P6SM FEW035 SCT250
FM090300 18010G19KT P6SM FEW012 SCT250
FM090800 20009KT P6SM BKN025
FM091500 21008KT 6SM BR OVC009
FM091600 22009KT P6SM OVC015



MET'MAP, your aeronautical weather chart ! - Copyright ORBIFLY December 2007 - Disclaimer

ORBIFLY MET'MAP TEAM :

Programming & Development : Alexandra Zaïnal
Concept & original design : Baudouin d'Aumeries
Assistance for programming : Marc-Olivier Méhu
Technical & hardware support : Manuel Goepfert

Contact : metmap@orbifly.com




SOURCES & CREDITS :

   NOAA       Earth
Advisory